Latest Coastal Weather Observations for Carnarvon

IDW60701

Issued at 4:35 pm WST Friday 24 October 2014 (issued every 10 minutes, with the page automatically refreshed every 10 minutes)

About coastal observations | Map of coastal stations | Coastal observations for WA | Marine services | Other Formats
Station Details ID: 006011 Name: CARNARVON AIRPORT Lat: -24.89 Lon: 113.67 Height: 4.0 m
Data from the previous 72 hours. | See also: Recent months at Carnarvon
Date/Time
WST
Temp

°C
Wind Pressure Rain
since 9am
mm
Weather Cloud Vis
km
Sea
Height
m
Swell
Dir
 
Speed
knots
Gust
knots
hPa Trend Height
m
Period
s
Dir
24/04:30pm 24.2 SSW 14 18 1013.8 - 0.0 - - 10 - - - -
24/04:00pm 24.6 SW 15 20 1014.0 - 0.0 - - 10 - - - -
24/03:30pm 24.8 SW 16 20 1014.1 - 0.0 - - 10 - - - -
24/03:00pm 25.0 SW 16 21 1014.3 - 0.0 - - 10 - - - -
24/02:30pm 25.4 SW 15 19 1014.5 - 0.0 - - 10 - - - -
24/02:00pm 25.3 SW 15 19 1014.6 - 0.0 - - 10 - - - -
24/01:30pm 25.1 WSW 15 17 1014.9 - 0.0 - - 10 - - - -
24/01:00pm 24.6 SSW 14 18 1015.0 - 0.0 - - 10 - - - -
24/12:30pm 24.9 SSW 14 18 1015.2 - 0.0 - - 10 - - - -
24/12:00pm 24.5 SSW 15 19 1015.2 - 0.0 - - 10 - - - -
24/11:30am 24.7 SSW 13 18 1015.5 - 0.0 - - 10 - - - -
24/11:00am 23.1 SSW 13 17 1015.7 - 0.0 - - 10 - - - -
24/10:30am 23.9 SSW 13 17 1015.8 - 0.0 - - 10 - - - -
24/10:00am 23.8 SSW 12 17 1015.9 - 0.0 - - 10 - - - -
24/09:30am 23.6 S 13 17 1016.0 - 0.0 - - 10 - - - -
24/09:00am 22.7 S 13 16 1016.1 - 0.0 - - 10 - - - -
24/08:30am 22.2 S 13 15 1016.1 - 0.0 - - 10 - - - -
24/08:00am 22.0 S 12 15 1015.9 - 0.0 - - 10 - - - -
24/07:30am 21.8 S 12 16 1015.8 - 0.0 - - 10 - - - -
24/07:00am 20.9 S 10 12 1015.9 - 0.0 - - 10 - - - -
24/06:30am 19.8 S 8 11 1015.7 - 0.0 - - 10 - - - -
24/06:00am 18.9 S 9 11 1015.4 - 0.0 - - 10 - - - -
24/05:30am 18.8 S 9 11 1015.3 - 0.0 - - 10 - - - -
24/05:00am 19.1 S 9 12 1014.9 - 0.0 - - 10 - - - -
24/04:30am 19.3 S 10 13 1014.9 - 0.0 - - 10 - - - -
24/04:00am 19.0 S 9 10 1014.7 - 0.0 - - 10 - - - -
24/03:30am 19.1 S 9 11 1014.7 - 0.0 - - 10 - - - -
24/03:00am 19.4 S 9 12 1014.8 - 0.0 - Mostly clear 10 - - - -
24/02:30am 19.8 S 10 13 1014.9 - 0.0 - - 10 - - - -
24/02:00am 19.9 S 11 13 1015.0 - 0.0 - - 10 - - - -
24/01:30am 20.1 S 12 16 1015.3 - 0.0 - - 10 - - - -
24/01:00am 20.5 S 14 18 1015.5 - 0.0 - - 10 - - - -
24/12:30am 20.5 S 12 15 1015.7 - 0.0 - - 10 - - - -
24/12:00am 20.5 S 12 15 1016.0 - 0.0 - Mostly clear 10 - - - -
 
Date/Time
WST
Temp

°C
Wind Pressure Rain
since 9am
mm
Weather Cloud Vis
km
Sea
Height
m
Swell
Dir
 
Speed
knots
Gust
knots
hPa Trend Height
m
Period
s
Dir
23/11:30pm 20.8 S 13 16 1016.2 - 0.0 - Partly cloudy 10 - - - -
23/11:00pm 20.9 S 13 17 1016.3 - 0.0 - Partly cloudy 10 - - - -
23/10:30pm 21.1 S 13 18 1016.4 - 0.0 - Partly cloudy 10 - - - -
23/10:00pm 21.1 S 13 17 1016.4 - 0.0 - Partly cloudy 10 - - - -
23/09:30pm 21.2 S 13 17 1016.5 - 0.0 - Partly cloudy 10 - - - -
23/09:00pm 21.2 SSW 14 18 1016.4 - 0.0 - Mostly clear 10 - - - -
23/08:30pm 21.2 SSW 13 17 1016.2 - 0.0 - - 10 - - - -
23/08:00pm 21.3 SSW 13 16 1016.0 - 0.0 - - 10 - - - -
23/07:30pm 21.5 SSW 13 18 1015.8 - 0.0 - - 10 - - - -
23/07:00pm 21.6 SSW 13 19 1015.5 - 0.0 - - 10 - - - -
23/06:30pm 21.8 SSW 13 17 1015.5 - 0.0 - - 10 - - - -
23/06:00pm 22.3 SW 12 16 1015.3 - 0.0 - - 10 - - - -
23/05:30pm 22.7 SSW 14 19 1015.2 - 0.0 - - 10 - - - -
23/05:00pm 23.6 SW 14 17 1015.2 - 0.0 - - 10 - - - -
23/04:30pm 23.8 SW 13 18 1015.3 - 0.0 - - 10 - - - -
23/04:00pm 24.0 SW 14 18 1015.5 - 0.0 - - 10 - - - -
23/03:30pm 24.0 SW 14 19 1015.5 - 0.0 - - 10 - - - -
23/03:00pm 24.7 SW 13 19 1015.7 R 0.0 Fine Mostly clear 35 - - - -
23/02:30pm 24.5 SW 14 17 1016.0 - 0.0 - Mostly clear 10 - - - -
23/02:00pm 24.6 SSW 13 17 1016.3 - 0.0 - Mostly clear 10 - - - -
23/01:30pm 24.5 SSW 13 18 1016.5 - 0.0 - Mostly clear 10 - - - -
23/01:00pm 24.1 SSW 13 18 1016.7 - 0.0 - Mostly clear 10 - - - -
23/12:30pm 24.4 SSW 13 16 1017.1 - 0.0 - Mostly clear 10 - - - -
23/12:00pm 23.8 SW 13 16 1017.2 R 0.0 Fine Mostly clear 40 - - - -
23/11:30am 24.3 SW 14 18 1017.7 - 0.0 - Mostly clear 10 - - - -
23/11:00am 23.9 SSW 13 17 1017.9 - 0.0 - Mostly clear 10 - - - -
23/10:30am 23.6 SW 12 17 1018.1 - 0.0 - Mostly clear 10 - - - -
23/10:00am 24.0 SSW 12 15 1018.1 - 0.0 - Mostly clear 10 - - - -
23/09:30am 23.3 SSW 11 14 1018.0 - 0.0 - Mostly clear 10 - - - -
23/09:00am 22.9 SSW 10 12 1017.9 R 0.0 Fine Mostly clear 40 - - - -
23/08:30am 23.1 S 8 12 1017.6 - 0.0 - Mostly clear 10 - - - -
23/08:00am 22.1 S 8 11 1017.6 - 0.0 - Mostly clear 10 - - - -
23/07:30am 22.0 S 9 12 1017.5 - 0.0 - Mostly clear 10 - - - -
23/07:00am 21.2 S 10 12 1017.4 - 0.0 - Mostly clear 10 - - - -
23/06:30am 20.5 S 10 13 1017.2 - 0.0 - Mostly clear 10 - - - -
23/06:00am 19.9 SSW 12 16 1016.8 F 0.0 Fine Mostly clear 40 - - - -
23/05:30am 19.8 SSW 11 17 1016.5 - 0.0 - Partly cloudy 10 - - - -
23/05:00am 20.3 SSW 12 17 1016.6 - 0.0 - Partly cloudy 10 - - - -
23/04:30am 19.8 S 8 11 1016.6 - 0.0 - Partly cloudy 10 - - - -
23/04:00am 19.8 SSW 10 14 1016.6 - 0.0 - Partly cloudy 10 - - - -
23/03:30am 20.0 SSW 10 13 1016.6 - 0.0 - Partly cloudy 10 - - - -
23/03:00am 20.1 SW 11 15 1016.7 - 0.0 - Mostly cloudy 10 - - - -
23/02:30am 20.6 SSW 13 17 1016.8 - 0.0 - Partly cloudy 10 - - - -
23/02:00am 20.7 SSW 13 17 1016.9 - 0.0 - Partly cloudy 10 - - - -
23/01:30am 20.9 SSW 10 13 1017.2 - 0.0 - Partly cloudy 10 - - - -
23/01:00am 20.8 SW 10 13 1017.3 - 0.0 - Partly cloudy 10 - - - -
23/12:30am 20.7 SW 9 12 1017.4 - 0.0 - - 10 - - - -
23/12:00am 20.9 SW 10 14 1017.6 - 0.0 - Mostly clear 10 - - - -
 
Date/Time
WST
Temp

°C
Wind Pressure Rain
since 9am
mm
Weather Cloud Vis
km
Sea
Height
m
Swell
Dir
 
Speed
knots
Gust
knots
hPa Trend Height
m
Period
s
Dir
22/11:30pm 20.9 SW 10 13 1017.8 - 0.0 - Partly cloudy 10 - - - -
22/11:00pm 21.1 SW 10 15 1018.0 - 0.0 - - 10 - - - -
22/10:30pm 21.3 SW 11 15 1018.3 - 0.0 - - 10 - - - -
22/10:00pm 21.4 SW 11 15 1018.3 - 0.0 - Partly cloudy 10 - - - -
22/09:30pm 21.7 SW 10 13 1018.3 - 0.0 - Partly cloudy 10 - - - -
22/09:00pm 21.6 SW 9 13 1018.4 - 0.0 - - 10 - - - -
22/08:30pm 21.7 SW 9 12 1018.3 - 0.0 - - 10 - - - -
22/08:00pm 21.8 WSW 9 14 1018.2 - 0.0 - - 10 - - - -
22/07:30pm 21.9 WSW 8 11 1018.1 - 0.0 - - 10 - - - -
22/07:00pm 21.9 WSW 11 15 1017.6 - 0.0 - - 10 - - - -
22/06:30pm 22.2 WSW 10 13 1017.5 - 0.0 - - 10 - - - -
22/06:00pm 23.0 WSW 11 15 1017.2 - 0.0 - - 10 - - - -
22/05:30pm 23.4 WSW 13 17 1017.0 - 0.0 - - 10 - - - -
22/05:00pm 23.4 WSW 13 20 1017.1 - 0.0 - - 10 - - - -
22/04:30pm 24.0 WSW 13 17 1016.9 - 0.0 - - 10 - - - -
22/04:00pm 23.8 WSW 14 17 1017.0 - 0.0 - - 10 - - - -
22/03:30pm 24.0 WSW 14 17 1017.0 - 0.0 - - 10 - - - -
22/03:00pm 24.1 WSW 12 15 1017.0 R 0.0 Fine Mostly clear 40 - - - -
22/02:30pm 24.3 SW 11 15 1017.2 - 0.0 - - 10 - - - -
22/02:00pm 24.4 SW 11 15 1017.2 - 0.0 - Mostly clear 10 - - - -
22/01:30pm 24.9 SW 10 15 1017.5 - 0.0 - Mostly clear 10 - - - -
22/01:00pm 25.1 SW 9 14 1017.6 - 0.0 - Mostly clear 10 - - - -
22/12:30pm 23.9 SW 9 13 1017.9 - 0.0 - Mostly clear 10 - - - -
22/12:00pm 23.8 WSW 9 12 1018.3 R 0.0 Fine Mostly clear 40 - - - -
22/11:30am 23.6 SW 8 13 1018.5 - 0.0 - Mostly clear 10 - - - -
22/11:00am 24.0 SSW 10 13 1018.7 - 0.0 - Mostly clear 10 - - - -
22/10:30am 23.8 SSW 11 14 1018.7 - 0.0 - Mostly clear 10 - - - -
22/10:00am 24.1 SSW 11 14 1018.8 - 0.0 - Mostly clear 10 - - - -
22/09:30am 23.1 SSW 10 13 1018.7 - 0.0 - Mostly clear 10 - - - -
22/09:00am 22.9 SSW 11 15 1018.5 S 0.0 Fine Partly cloudy 40 - - - -
22/08:30am 22.8 SSW 11 14 1018.4 - 0.0 - Mostly clear 10 - - - -
22/08:00am 22.3 SSW 11 15 1018.1 - 0.0 - Mostly clear 10 - - - -
22/07:30am 22.0 SW 11 15 1018.2 - 0.0 - Mostly clear 10 - - - -
22/07:00am 21.2 SW 10 16 1017.9 - 0.0 - Mostly clear 10 - - - -
22/06:30am 20.7 SW 10 14 1017.7 - 0.0 - Mostly clear 10 - - - -
22/06:00am 20.4 SW 10 13 1017.5 R 0.0 Fine Mostly cloudy 40 - - - -
22/05:30am 20.4 SW 10 14 1017.1 - 0.0 - Partly cloudy 10 - - - -
22/05:00am 20.5 SW 10 14 1016.9 - 0.0 - Partly cloudy 10 - - - -
22/04:30am 20.6 SW 10 15 1016.7 - 0.0 - Partly cloudy 10 - - - -
22/04:00am 20.4 SW 10 13 1016.6 - 0.0 - Partly cloudy 10 - - - -
22/03:30am 20.4 SW 10 13 1016.6 - 0.0 - Partly cloudy 10 - - - -
22/03:00am 20.4 SW 10 15 1016.4 - 0.0 - Mostly cloudy 10 - - - -
22/02:30am 20.2 SW 8 12 1016.5 - 0.0 - Partly cloudy 10 - - - -
22/02:00am 20.1 SW 8 10 1016.5 - 0.0 - Partly cloudy 10 - - - -
22/01:30am 20.2 SSW 9 12 1016.6 - 0.0 - Partly cloudy 10 - - - -
22/01:00am 20.3 SW 9 12 1016.8 - 0.0 - Partly cloudy 10 - - - -
22/12:30am 20.3 SW 9 13 1016.9 - 0.0 - Partly cloudy 10 - - - -
22/12:00am 20.3 SW 11 14 1016.7 - 0.0 - - 10 - - - -
 
Date/Time
WST
Temp

°C
Wind Pressure Rain
since 9am
mm
Weather Cloud Vis
km
Sea
Height
m
Swell
Dir
 
Speed
knots
Gust
knots
hPa Trend Height
m
Period
s
Dir
21/11:30pm 20.5 SSW 11 15 1016.8 - 0.0 - Partly cloudy 10 - - - -
21/11:00pm 20.4 SSW 11 15 1016.9 - 0.0 - - 10 - - - -
21/10:30pm 20.6 SSW 13 16 1017.0 - 0.0 - Partly cloudy 10 - - - -
21/10:00pm 20.7 SW 12 16 1017.7 - 0.0 - Partly cloudy 10 - - - -
21/09:30pm 20.9 SSW 11 16 1017.9 - 0.0 - - 10 - - - -
21/09:00pm 21.0 SSW 11 14 1017.8 - 0.0 - - 10 - - - -
21/08:30pm 21.1 SW 11 15 1017.9 - 0.0 - - 10 - - - -
21/08:00pm 21.4 WSW 14 20 1017.7 - 0.0 - - 10 - - - -
21/07:30pm 21.8 WSW 15 21 1017.3 - 0.0 - - 10 - - - -
21/07:00pm 22.1 WSW 15 21 1016.8 - 0.0 - - 10 - - - -
21/06:30pm 22.4 WSW 15 18 1015.9 - 0.0 - - 10 - - - -
21/06:00pm 22.9 WSW 15 19 1015.7 - 0.0 - - 10 - - - -
21/05:30pm 23.1 WSW 14 19 1015.0 - 0.0 - - 10 - - - -
21/05:00pm 23.6 WSW 16 19 1015.0 - 0.0 - - 10 - - - -

Other Formats:

Comma delimited format used in spreadsheet applications
http://www.bom.gov.au/fwo/IDW60701/IDW60701.94300.axf

JavaScript Object Notation format (JSON) in row-major order
http://www.bom.gov.au/fwo/IDW60701/IDW60701.94300.json